createdAt,value
2019-05-21T00:00:39.261Z,90.88
2019-05-21T00:03:11.678Z,91.01
2019-05-21T00:05:45.400Z,91.21
2019-05-21T00:08:17.751Z,91.35
2019-05-21T00:10:54.867Z,91.48
2019-05-21T00:13:28.690Z,91.52
2019-05-21T00:16:04.216Z,91.50
2019-05-21T00:18:39.601Z,91.52
2019-05-21T00:21:11.924Z,91.62
2019-05-21T00:23:44.834Z,91.75
2019-05-21T00:26:17.065Z,91.85
2019-05-21T00:29:11.897Z,91.96
2019-05-21T00:32:06.391Z,92.04
2019-05-21T00:35:01.294Z,91.94
2019-05-21T00:37:55.893Z,91.63
2019-05-21T00:40:50.603Z,91.29
2019-05-21T00:43:51.352Z,91.32
2019-05-21T00:46:23.695Z,91.33
2019-05-21T00:48:56.008Z,91.51
2019-05-21T00:51:28.275Z,91.61
2019-05-21T00:54:00.599Z,91.83
2019-05-21T00:56:32.878Z,91.93
2019-05-21T00:59:06.019Z,91.95
2019-05-21T01:01:38.996Z,91.98
2019-05-21T01:04:13.476Z,92.03
2019-05-21T01:06:45.778Z,92.12
2019-05-21T01:09:18.065Z,92.13
2019-05-21T01:11:51.141Z,92.19
2019-05-21T01:14:23.410Z,92.15
2019-05-21T01:16:55.847Z,92.06
2019-05-21T01:19:28.739Z,92.11
2019-05-21T01:22:01.056Z,92.10
2019-05-21T01:24:34.314Z,92.13
2019-05-21T01:27:06.619Z,92.13
2019-05-21T01:29:38.906Z,92.11
2019-05-21T01:32:11.169Z,92.16
2019-05-21T01:34:43.471Z,92.12
2019-05-21T01:37:15.747Z,92.12
2019-05-21T01:39:50.640Z,92.22
2019-05-21T01:42:23.171Z,92.25
2019-05-21T01:44:55.405Z,92.30
2019-05-21T01:47:27.712Z,92.36
2019-05-21T01:50:00.044Z,92.41
2019-05-21T01:52:32.355Z,92.40
2019-05-21T01:55:04.792Z,92.46
2019-05-21T01:57:37.683Z,92.54
2019-05-21T02:00:12.999Z,92.74
2019-05-21T02:02:45.937Z,92.65
2019-05-21T02:05:32.124Z,92.63
2019-05-21T02:08:05.674Z,92.62
2019-05-21T02:10:37.956Z,92.74
2019-05-21T02:13:10.227Z,92.77
2019-05-21T02:15:42.601Z,92.80
2019-05-21T02:18:14.920Z,92.86
2019-05-21T02:20:47.276Z,92.95
2019-05-21T02:23:19.625Z,93.00
2019-05-21T02:28:16.063Z,93.13
2019-05-21T02:30:48.330Z,93.16
2019-05-21T02:33:20.651Z,92.85
2019-05-21T02:35:54.809Z,92.78
2019-05-21T02:38:27.486Z,92.76
2019-05-21T02:40:59.760Z,92.77
2019-05-21T02:43:32.100Z,92.81
2019-05-21T02:46:05.624Z,92.89
2019-05-21T02:48:38.119Z,92.82
2019-05-21T02:51:10.609Z,92.80
2019-05-21T02:53:43.327Z,92.96
2019-05-21T02:56:15.888Z,92.81
2019-05-21T02:58:49.444Z,92.93
2019-05-21T03:01:34.405Z,93.02
2019-05-21T03:04:07.087Z,93.16
2019-05-21T03:06:39.712Z,93.16
2019-05-21T03:09:12.356Z,93.30
2019-05-21T03:11:44.871Z,93.40
2019-05-21T03:14:17.429Z,93.47
2019-05-21T03:16:50.256Z,93.56
2019-05-21T03:19:22.673Z,93.54
2019-05-21T03:21:54.924Z,93.67
2019-05-21T03:24:27.265Z,93.72
2019-05-21T03:26:59.579Z,93.82
2019-05-21T03:29:31.971Z,93.94
2019-05-21T03:32:04.242Z,93.89
2019-05-21T03:34:36.627Z,94.00
2019-05-21T03:37:08.859Z,94.05
2019-05-21T03:39:41.160Z,94.10
2019-05-21T03:42:14.070Z,94.02
2019-05-21T03:44:59.154Z,94.10
2019-05-21T03:47:31.791Z,94.24
2019-05-21T03:50:04.405Z,94.32
2019-05-21T03:52:36.745Z,94.42
2019-05-21T03:55:09.773Z,94.55
2019-05-21T03:57:42.249Z,94.60
2019-05-21T04:00:22.107Z,94.72
2019-05-21T04:02:54.379Z,94.83
2019-05-21T04:05:26.755Z,94.93
2019-05-21T04:07:59.075Z,94.99
2019-05-21T04:10:31.386Z,95.09
2019-05-21T04:13:06.070Z,95.14
2019-05-21T04:15:53.746Z,95.21
2019-05-21T04:18:36.226Z,95.31
2019-05-21T04:21:09.343Z,95.29
2019-05-21T04:23:41.880Z,95.27
2019-05-21T04:26:14.458Z,95.34
2019-05-21T04:28:47.067Z,95.39
2019-05-21T04:31:19.441Z,95.62
2019-05-21T04:33:51.932Z,95.78
2019-05-21T04:36:24.583Z,96.05
2019-05-21T04:38:57.224Z,96.25
2019-05-21T04:41:29.740Z,96.51
2019-05-21T04:44:02.319Z,96.71
2019-05-21T04:46:35.125Z,96.85
2019-05-21T04:49:07.733Z,96.96
2019-05-21T04:51:42.058Z,96.98
2019-05-21T04:54:14.724Z,96.95
2019-05-21T04:56:48.529Z,97.01
2019-05-21T04:59:21.706Z,96.99
2019-05-21T05:01:54.221Z,97.02
2019-05-21T05:04:27.513Z,97.15
2019-05-21T05:07:03.299Z,97.14
2019-05-21T05:09:35.918Z,97.12
2019-05-21T05:12:08.373Z,97.11
2019-05-21T05:14:41.037Z,96.93
2019-05-21T05:17:14.224Z,96.82
2019-05-21T05:19:47.525Z,96.89
2019-05-21T05:22:21.206Z,96.84
2019-05-21T05:24:53.502Z,96.95
2019-05-21T05:27:25.793Z,97.00
2019-05-21T05:29:58.654Z,97.04
2019-05-21T05:32:30.976Z,96.87
2019-05-21T05:35:03.497Z,96.84
2019-05-21T05:37:44.255Z,96.92
2019-05-21T05:40:18.936Z,96.95
2019-05-21T05:42:51.787Z,97.00
2019-05-21T05:45:25.036Z,97.08
2019-05-21T05:47:57.306Z,97.08
2019-05-21T05:50:38.744Z,96.97
2019-05-21T05:53:14.700Z,96.71
2019-05-21T05:55:47.009Z,96.57
2019-05-21T05:58:19.959Z,96.48
2019-05-21T06:00:53.028Z,96.40
2019-05-21T06:03:26.499Z,96.38
2019-05-21T06:05:59.857Z,96.37
2019-05-21T06:08:32.348Z,96.32
2019-05-21T06:11:06.633Z,96.16
2019-05-21T06:13:39.193Z,96.17
2019-05-21T06:16:11.824Z,96.18
2019-05-21T06:18:44.522Z,96.19
2019-05-21T06:21:17.000Z,95.80
2019-05-21T06:23:50.488Z,95.66
2019-05-21T06:26:23.142Z,95.63
2019-05-21T06:28:55.683Z,95.59
2019-05-21T06:31:29.868Z,95.61
2019-05-21T06:34:03.156Z,95.62
2019-05-21T06:36:36.344Z,95.34
2019-05-21T06:39:08.846Z,95.27
2019-05-21T06:41:43.020Z,95.13
2019-05-21T06:44:16.231Z,95.14
2019-05-21T06:46:49.685Z,94.95
2019-05-21T06:49:24.393Z,94.93
2019-05-21T06:51:57.548Z,94.76
2019-05-21T06:54:33.747Z,94.77
2019-05-21T06:57:07.899Z,94.78
2019-05-21T06:59:40.587Z,94.68
2019-05-21T07:02:14.028Z,94.66
2019-05-21T07:04:47.808Z,94.52
2019-05-21T07:07:20.193Z,94.59
2019-05-21T07:09:52.437Z,94.46
2019-05-21T07:12:25.638Z,94.38
2019-05-21T07:14:57.970Z,94.30
2019-05-21T07:17:30.501Z,94.21
2019-05-21T07:20:02.917Z,94.19
2019-05-21T07:22:36.050Z,93.99
2019-05-21T07:25:10.180Z,94.06
2019-05-21T07:27:44.282Z,94.12
2019-05-21T07:30:21.698Z,94.15
2019-05-21T07:32:54.440Z,94.17
2019-05-21T07:35:27.955Z,94.21
2019-05-21T07:38:01.469Z,94.31
2019-05-21T07:40:36.179Z,94.16
2019-05-21T07:43:12.790Z,93.89
2019-05-21T07:45:46.407Z,93.46
2019-05-21T07:48:21.076Z,93.24
2019-05-21T07:50:53.535Z,93.17
2019-05-21T07:53:25.928Z,93.10
2019-05-21T07:55:58.947Z,93.16
2019-05-21T07:58:31.343Z,93.30
2019-05-21T08:01:04.558Z,93.37
2019-05-21T08:03:37.615Z,93.36
2019-05-21T08:06:14.863Z,93.43
2019-05-21T08:08:47.590Z,93.51
2019-05-21T08:11:20.826Z,93.52
2019-05-21T08:13:53.752Z,93.59
2019-05-21T08:16:27.009Z,93.76
2019-05-21T08:19:00.472Z,93.77
2019-05-21T08:21:32.807Z,93.84
2019-05-21T08:24:05.897Z,93.87
2019-05-21T08:26:40.354Z,93.85
2019-05-21T08:29:12.743Z,93.29
2019-05-21T08:31:44.984Z,93.22
2019-05-21T08:34:18.845Z,93.12
2019-05-21T08:36:53.277Z,93.25
2019-05-21T08:39:29.193Z,93.40
2019-05-21T08:42:02.622Z,93.39
2019-05-21T08:44:35.643Z,93.48
2019-05-21T08:47:10.215Z,93.65
2019-05-21T08:49:44.313Z,93.70
2019-05-21T08:52:16.709Z,93.65
2019-05-21T08:54:50.563Z,93.65
2019-05-21T08:57:23.950Z,93.60
2019-05-21T08:59:59.927Z,93.55
2019-05-21T09:02:32.364Z,93.18
2019-05-21T09:05:06.517Z,93.08
2019-05-21T09:07:42.521Z,93.05
2019-05-21T09:10:19.954Z,92.98
2019-05-21T09:12:52.909Z,92.89
2019-05-21T09:15:26.547Z,92.93
2019-05-21T09:17:58.944Z,93.05
2019-05-21T09:20:33.112Z,93.04
2019-05-21T09:23:06.382Z,93.12
2019-05-21T09:25:38.758Z,92.93
2019-05-21T09:28:11.148Z,93.20
2019-05-21T09:30:44.360Z,93.01
2019-05-21T09:33:16.668Z,93.00
2019-05-21T09:35:49.807Z,92.93
2019-05-21T09:38:23.733Z,92.77
2019-05-21T09:40:57.600Z,92.50
2019-05-21T09:43:30.579Z,92.39
2019-05-21T09:46:05.056Z,92.34
2019-05-21T09:48:37.372Z,92.36
2019-05-21T09:51:09.686Z,92.24
2019-05-21T09:53:44.184Z,92.21
2019-05-21T09:56:22.108Z,92.20
2019-05-21T10:00:17.540Z,92.42
2019-05-21T10:02:52.605Z,92.34
2019-05-21T10:05:25.053Z,91.87
2019-05-21T10:07:58.744Z,91.56
2019-05-21T10:10:32.233Z,91.47
2019-05-21T10:13:05.585Z,91.39
2019-05-21T10:15:39.666Z,91.49
2019-05-21T10:18:14.993Z,91.25
2019-05-21T10:20:56.861Z,91.16
2019-05-21T10:23:32.740Z,91.15
2019-05-21T10:26:06.560Z,91.25
2019-05-21T10:28:40.358Z,91.25
2019-05-21T10:31:14.482Z,90.96
2019-05-21T10:33:47.569Z,90.63
2019-05-21T10:36:25.247Z,90.93
2019-05-21T10:38:59.687Z,91.13
2019-05-21T10:41:32.089Z,91.35
2019-05-21T10:44:06.246Z,91.50
2019-05-21T10:46:39.215Z,91.54
2019-05-21T10:49:12.964Z,91.56
2019-05-21T10:51:46.417Z,91.76
2019-05-21T10:54:19.868Z,91.95
2019-05-21T10:56:53.670Z,91.98
2019-05-21T10:59:26.645Z,91.93
2019-05-21T11:02:18.333Z,92.01
2019-05-21T11:05:22.672Z,92.18
2019-05-21T11:08:25.231Z,92.10
2019-05-21T11:10:58.087Z,92.29
2019-05-21T11:13:34.691Z,92.50
2019-05-21T11:16:13.675Z,92.70
2019-05-21T11:18:48.452Z,92.82
2019-05-21T11:21:22.312Z,93.05
2019-05-21T11:23:56.539Z,93.24
2019-05-21T11:26:32.321Z,93.30
2019-05-21T11:29:05.463Z,93.33
2019-05-21T11:31:55.691Z,93.41
2019-05-21T11:34:30.734Z,93.59
2019-05-21T11:37:04.013Z,93.80
2019-05-21T11:39:37.180Z,93.74
2019-05-21T11:42:09.688Z,93.67
2019-05-21T11:44:44.260Z,93.73
2019-05-21T11:47:16.679Z,93.78
2019-05-21T11:49:50.705Z,93.55
2019-05-21T11:52:25.384Z,93.56
2019-05-21T11:54:58.596Z,93.65
2019-05-21T11:57:31.960Z,93.71
2019-05-21T12:00:07.517Z,93.82
2019-05-21T12:02:40.561Z,93.85
2019-05-21T12:05:18.843Z,93.68
2019-05-21T12:08:00.481Z,93.68
2019-05-21T12:10:33.805Z,93.61
2019-05-21T12:13:07.084Z,93.57
2019-05-21T12:15:39.394Z,93.58
2019-05-21T12:18:13.665Z,93.59
2019-05-21T12:20:47.737Z,93.59
2019-05-21T12:23:22.339Z,93.59
2019-05-21T12:25:54.740Z,93.55
2019-05-21T12:28:28.131Z,93.42
2019-05-21T12:31:00.525Z,93.32
2019-05-21T12:33:35.371Z,93.41
2019-05-21T12:36:09.558Z,93.36
2019-05-21T12:38:42.969Z,93.11
2019-05-21T12:41:17.301Z,93.04
2019-05-21T12:43:51.829Z,92.91
2019-05-21T12:46:25.302Z,92.77
2019-05-21T12:48:59.825Z,92.66
2019-05-21T12:51:35.115Z,92.68
2019-05-21T12:54:07.506Z,92.70
2019-05-21T12:56:41.291Z,92.81
2019-05-21T12:59:13.826Z,92.86
2019-05-21T13:01:47.063Z,92.91
2019-05-21T13:04:19.531Z,92.74
2019-05-21T13:06:53.265Z,92.75
2019-05-21T13:09:32.814Z,92.93
2019-05-21T13:12:06.833Z,92.96
2019-05-21T13:14:40.193Z,92.96
2019-05-21T13:17:14.137Z,93.11
2019-05-21T13:19:48.979Z,93.04
2019-05-21T13:22:22.087Z,93.11
2019-05-21T13:24:59.186Z,93.10
2019-05-21T13:27:31.538Z,93.21
2019-05-21T13:30:06.083Z,93.31
2019-05-21T13:32:43.642Z,93.34
2019-05-21T13:35:17.332Z,93.39
2019-05-21T13:37:49.777Z,93.41
2019-05-21T13:40:25.519Z,93.50
2019-05-21T13:43:00.705Z,93.45
2019-05-21T13:45:33.710Z,93.27
2019-05-21T13:48:06.031Z,93.12
2019-05-21T13:50:39.104Z,93.05
2019-05-21T13:53:18.130Z,93.01
2019-05-21T13:55:51.841Z,93.16
2019-05-21T13:58:25.304Z,93.19
2019-05-21T14:01:00.489Z,93.28
2019-05-21T14:03:32.934Z,93.31
2019-05-21T14:06:06.738Z,93.37
2019-05-21T14:08:40.829Z,93.36
2019-05-21T14:11:13.078Z,93.40
2019-05-21T14:13:47.545Z,93.56
2019-05-21T14:16:20.907Z,93.70
2019-05-21T14:18:58.502Z,93.80
2019-05-21T14:21:31.788Z,93.63
2019-05-21T14:24:06.033Z,93.34
2019-05-21T14:26:38.427Z,93.26
2019-05-21T14:29:11.857Z,93.26
2019-05-21T14:31:46.812Z,93.20
2019-05-21T14:34:21.624Z,93.24
2019-05-21T14:36:54.387Z,93.28
2019-05-21T14:39:28.706Z,93.27
2019-05-21T14:42:04.479Z,93.20
2019-05-21T14:44:42.163Z,93.17
2019-05-21T14:47:19.082Z,93.13
2019-05-21T14:49:53.434Z,92.90
2019-05-21T14:52:27.106Z,92.81
2019-05-21T14:55:01.794Z,92.84
2019-05-21T14:57:36.522Z,92.93
2019-05-21T15:00:24.637Z,92.99
2019-05-21T15:02:57.541Z,92.88
2019-05-21T15:05:31.448Z,92.89
2019-05-21T15:08:06.572Z,93.01
2019-05-21T15:10:48.714Z,92.98
2019-05-21T15:13:23.605Z,92.73
2019-05-21T15:15:56.491Z,92.37
2019-05-21T15:18:35.222Z,91.66
2019-05-21T15:21:20.260Z,91.17
2019-05-21T15:23:53.090Z,91.04
2019-05-21T15:26:27.808Z,90.72
2019-05-21T15:29:04.221Z,90.49
2019-05-21T15:31:40.212Z,90.11
2019-05-21T15:34:27.661Z,90.09
2019-05-21T15:37:06.607Z,89.82
2019-05-21T15:39:44.200Z,90.02
2019-05-21T15:42:18.554Z,90.23
2019-05-21T15:44:52.937Z,90.41
2019-05-21T15:47:27.269Z,90.62
2019-05-21T15:50:02.399Z,90.85
2019-05-21T15:52:34.996Z,90.91
2019-05-21T15:55:10.495Z,90.97
2019-05-21T15:57:45.086Z,91.04
2019-05-21T16:00:20.190Z,91.05
2019-05-21T16:02:52.907Z,91.15
2019-05-21T16:05:27.622Z,91.27
2019-05-21T16:08:00.803Z,91.38
2019-05-21T16:10:34.765Z,91.45
2019-05-21T16:13:07.954Z,91.49
2019-05-21T16:15:40.968Z,91.50
2019-05-21T16:18:13.498Z,91.49
2019-05-21T16:20:46.736Z,91.64
2019-05-21T16:23:22.542Z,91.58
2019-05-21T16:25:58.814Z,91.67
2019-05-21T16:28:33.047Z,91.81
2019-05-21T16:33:27.813Z,91.92
2019-05-21T16:36:00.277Z,91.94
2019-05-21T16:38:34.615Z,91.94
2019-05-21T16:41:07.633Z,92.06
2019-05-21T16:43:43.719Z,92.10
2019-05-21T16:46:18.639Z,92.17
2019-05-21T16:48:55.071Z,92.19
2019-05-21T16:51:28.758Z,92.23
2019-05-21T16:54:02.079Z,92.28
2019-05-21T16:56:35.850Z,92.36
2019-05-21T16:59:10.482Z,92.45
2019-05-21T17:01:44.934Z,92.44
2019-05-21T17:04:20.324Z,92.40
2019-05-21T17:06:56.080Z,92.49
2019-05-21T17:09:30.657Z,92.52
2019-05-21T17:12:03.732Z,92.65
2019-05-21T17:14:37.742Z,92.81
2019-05-21T17:17:13.404Z,92.87
2019-05-21T17:19:55.499Z,92.81
2019-05-21T17:22:31.211Z,92.91
2019-05-21T17:25:13.419Z,92.97
2019-05-21T17:27:51.169Z,92.97
2019-05-21T17:30:27.100Z,93.02
2019-05-21T17:32:59.535Z,93.12
2019-05-21T17:35:32.027Z,93.26
2019-05-21T17:38:04.484Z,93.31
2019-05-21T17:40:39.716Z,93.32
2019-05-21T17:43:13.965Z,93.37
2019-05-21T17:45:47.703Z,93.48
2019-05-21T17:48:22.306Z,93.62
2019-05-21T17:50:55.545Z,93.73
2019-05-21T17:53:29.164Z,93.85
2019-05-21T17:56:22.560Z,93.80
2019-05-21T17:58:55.857Z,93.82
2019-05-21T18:01:33.391Z,93.81
2019-05-21T18:04:07.846Z,93.86
2019-05-21T18:06:41.560Z,93.92
2019-05-21T18:09:17.856Z,93.99
2019-05-21T18:11:53.900Z,93.94
2019-05-21T18:14:26.415Z,93.86
2019-05-21T18:17:00.347Z,93.81
2019-05-21T18:19:35.876Z,93.76
2019-05-21T18:22:12.090Z,93.69
2019-05-21T18:24:48.275Z,93.77
2019-05-21T18:31:37.785Z,93.85
2019-05-21T18:34:10.206Z,93.82
2019-05-21T18:39:37.977Z,93.58
2019-05-21T18:42:21.686Z,93.54
2019-05-21T18:44:54.702Z,93.38
2019-05-21T18:47:30.527Z,93.30
2019-05-21T18:50:04.660Z,93.37
2019-05-21T18:52:56.574Z,93.06
2019-05-21T19:26:54.589Z,93.74
2019-05-21T19:29:30.799Z,93.56
2019-05-21T19:32:08.261Z,93.54
2019-05-21T19:41:55.248Z,93.28
